This is the latest recevied weather packets stored in our database for station/object EA4TN. If no packets are shown the sender has not sent any weather packets the latest 10 day(s).
| Time | Temp. | Humidity | Pressure | Rain* | Wind** | Luminosity | Snow |
|---|---|---|---|---|---|---|---|
| 1777426816 | 16.11° C | 73% | 1009.3 hPa | 0 mm | - | - | - |
| 1777425616 | 16.11° C | 72% | 1009 hPa | 0 mm | - | - | - |
| 1777416617 | 17.22° C | 69% | 1010.1 hPa | 0 mm | - | - | - |
| 1777408816 | 18.33° C | 59% | 1009.7 hPa | 0 mm | - | - | - |
| 1777401616 | 20° C | 52% | 1007.5 hPa | 0 mm | - | - | - |
| 1777400417 | 21.11° C | 48% | 1007.2 hPa | 0 mm | - | - | - |
| 1777399216 | 23.89° C | 39% | 1007.1 hPa | 0 mm | - | - | - |
| 1777397417 | 23.89° C | 38% | 1007.3 hPa | 0 mm | - | - | - |
| 1777396216 | 23.89° C | 37% | 1007.5 hPa | 0 mm | - | - | - |
| 1777393217 | 25.56° C | 35% | 1007.6 hPa | 0 mm | - | - | - |
| 1777388417 | 25° C | 34% | 1008.5 hPa | 0 mm | - | - | - |
| 1777380637 | 23.33° C | 33% | 1010.6 hPa | 0 mm | - | - | - |
| 1777379416 | 23.33° C | 32% | 1010.9 hPa | 0 mm | - | - | - |
| 1777375217 | 21.67° C | 33% | 1012 hPa | 0 mm | - | - | - |
| 1777367417 | 19.44° C | 38% | 1013.2 hPa | 0 mm | - | - | - |
| 1777362017 | 15.56° C | 38% | 1013.4 hPa | 0 mm | - | - | - |
| 1777360217 | 14.44° C | 43% | 1013.4 hPa | 0 mm | - | - | - |
| 1777359617 | 14.44° C | 47% | 1013.5 hPa | 0 mm | - | - | - |
| 1777357217 | 12.78° C | 59% | 1013 hPa | 0 mm | - | - | - |
| 1777356637 | 12.78° C | 61% | 1013 hPa | 0 mm | - | - | - |
| 1777356017 | 12.78° C | 60% | 1013.1 hPa | 0 mm | - | - | - |
| 1777350617 | 13.33° C | 52% | 1013.2 hPa | 0 mm | - | - | - |
| 1777348817 | 13.89° C | 46% | 1013.5 hPa | 0 mm | - | - | - |
| 1777347617 | 14.44° C | 42% | 1013.5 hPa | 0 mm | - | - | - |
| 1777347017 | 14.44° C | 39% | 1013.6 hPa | 0 mm | - | - | - |
* Rain latest hour (hover to see other rain measurements)
** Current wind speed in m/s (hover to see current wind gust speed)